createdAt,value
2023-03-17T00:00:22.302Z,53.46
2023-03-17T00:03:08.107Z,54.10
2023-03-17T00:05:54.851Z,54.54
2023-03-17T00:08:40.279Z,53.96
2023-03-17T00:11:27.612Z,54.02
2023-03-17T00:14:13.315Z,53.50
2023-03-17T00:16:58.576Z,52.44
2023-03-17T00:19:44.099Z,53.63
2023-03-17T00:22:29.452Z,54.10
2023-03-17T00:25:34.314Z,52.61
2023-03-17T00:28:25.457Z,52.38
2023-03-17T00:31:16.609Z,53.47
2023-03-17T00:34:02.351Z,54.00
2023-03-17T00:36:49.590Z,53.58
2023-03-17T00:39:35.122Z,55.14
2023-03-17T00:42:20.314Z,55.81
2023-03-17T00:45:06.009Z,54.35
2023-03-17T00:47:54.191Z,54.42
2023-03-17T00:50:39.698Z,54.71
2023-03-17T00:53:24.978Z,54.21
2023-03-17T00:56:13.944Z,53.67
2023-03-17T00:58:59.165Z,53.71
2023-03-17T01:01:44.600Z,55.08
2023-03-17T01:04:29.940Z,54.49
2023-03-17T01:07:15.251Z,53.87
2023-03-17T01:10:00.668Z,54.05
2023-03-17T01:12:46.274Z,54.02
2023-03-17T01:15:33.432Z,54.71
2023-03-17T01:18:21.501Z,54.02
2023-03-17T01:21:06.792Z,53.91
2023-03-17T01:23:52.366Z,54.22
2023-03-17T01:26:38.662Z,53.72
2023-03-17T01:29:24.142Z,53.58
2023-03-17T01:32:09.847Z,53.46
2023-03-17T01:34:55.061Z,53.08
2023-03-17T01:37:40.499Z,53.44
2023-03-17T01:40:29.661Z,54.61
2023-03-17T01:43:24.997Z,53.68
2023-03-17T01:46:16.328Z,53.94
2023-03-17T01:49:23.476Z,53.70
2023-03-17T01:52:13.143Z,53.50
2023-03-17T01:55:03.410Z,52.41
2023-03-17T01:57:53.080Z,52.18
2023-03-17T02:00:39.455Z,51.61
2023-03-17T02:03:26.047Z,51.07
2023-03-17T02:06:12.425Z,51.33
2023-03-17T02:08:58.851Z,51.67
2023-03-17T02:11:45.524Z,51.64
2023-03-17T02:14:31.166Z,52.99
2023-03-17T02:17:16.542Z,52.32
2023-03-17T02:20:17.073Z,53.48
2023-03-17T02:23:03.115Z,53.92
2023-03-17T02:25:51.742Z,53.79
2023-03-17T02:28:37.211Z,53.10
2023-03-17T02:31:27.682Z,52.63
2023-03-17T02:34:12.934Z,51.06
2023-03-17T02:36:58.970Z,53.04
2023-03-17T02:39:45.200Z,52.94
2023-03-17T02:42:30.439Z,52.62
2023-03-17T02:45:17.680Z,52.08
2023-03-17T02:48:04.295Z,52.86
2023-03-17T02:50:50.002Z,53.33
2023-03-17T02:53:35.580Z,56.32
2023-03-17T02:56:20.691Z,55.81
2023-03-17T02:59:06.006Z,55.07
2023-03-17T03:01:51.279Z,55.56
2023-03-17T03:04:36.908Z,55.99
2023-03-17T03:07:22.387Z,56.46
2023-03-17T03:10:08.113Z,56.41
2023-03-17T03:12:53.542Z,56.26
2023-03-17T03:15:41.606Z,58.13
2023-03-17T03:18:27.207Z,58.21
2023-03-17T03:21:15.202Z,60.09
2023-03-17T03:24:00.422Z,61.80
2023-03-17T03:26:45.711Z,60.21
2023-03-17T03:29:31.428Z,58.91
2023-03-17T03:32:16.659Z,58.98
2023-03-17T03:35:02.174Z,57.98
2023-03-17T03:37:48.060Z,59.75
2023-03-17T03:40:34.362Z,59.66
2023-03-17T03:43:23.711Z,59.35
2023-03-17T03:46:09.315Z,58.45
2023-03-17T03:48:55.153Z,58.27
2023-03-17T03:51:40.700Z,58.59
2023-03-17T03:54:25.935Z,57.65
2023-03-17T03:57:11.363Z,57.35
2023-03-17T03:59:56.517Z,58.99
2023-03-17T04:02:42.181Z,58.50
2023-03-17T04:05:27.560Z,58.68
2023-03-17T04:08:12.860Z,59.02
2023-03-17T04:10:58.981Z,57.47
2023-03-17T04:13:44.274Z,58.90
2023-03-17T04:16:29.730Z,59.20
2023-03-17T04:19:14.711Z,57.83
2023-03-17T04:21:59.835Z,57.37
2023-03-17T04:24:45.379Z,58.27
2023-03-17T04:27:30.938Z,60.10
2023-03-17T04:30:17.089Z,58.29
2023-03-17T04:33:02.696Z,58.74
2023-03-17T04:35:48.204Z,61.10
2023-03-17T04:38:34.236Z,61.03
2023-03-17T04:41:19.752Z,60.51
2023-03-17T04:44:05.468Z,60.20
2023-03-17T04:46:51.201Z,60.16
2023-03-17T04:49:36.819Z,60.77
2023-03-17T04:52:22.259Z,60.23
2023-03-17T04:55:08.075Z,59.75
2023-03-17T04:57:53.303Z,61.99
2023-03-17T05:00:38.757Z,60.65
2023-03-17T05:03:27.265Z,61.09
2023-03-17T05:06:13.632Z,60.70
2023-03-17T05:08:58.832Z,60.35
2023-03-17T05:11:44.052Z,61.22
2023-03-17T05:14:29.332Z,60.40
2023-03-17T05:17:15.015Z,60.74
2023-03-17T05:20:00.374Z,60.59
2023-03-17T05:22:45.777Z,60.98
2023-03-17T05:25:31.021Z,62.05
2023-03-17T05:28:16.282Z,61.60
2023-03-17T05:31:01.509Z,61.83
2023-03-17T05:33:46.927Z,61.63
2023-03-17T05:36:32.334Z,61.93
2023-03-17T05:39:17.796Z,60.33
2023-03-17T05:42:03.414Z,61.82
2023-03-17T05:44:49.031Z,61.99
2023-03-17T05:47:35.059Z,62.45
2023-03-17T05:50:20.255Z,62.85
2023-03-17T05:53:05.781Z,62.33
2023-03-17T05:55:50.952Z,63.00
2023-03-17T05:58:36.255Z,62.93
2023-03-17T06:01:21.855Z,62.41
2023-03-17T06:04:07.183Z,62.64
2023-03-17T06:06:52.802Z,62.30
2023-03-17T06:09:38.260Z,62.41
2023-03-17T06:12:24.246Z,63.70
2023-03-17T06:15:09.802Z,64.03
2023-03-17T06:17:55.201Z,63.76
2023-03-17T06:20:40.520Z,63.44
2023-03-17T06:23:25.645Z,63.31
2023-03-17T06:26:11.204Z,62.85
2023-03-17T06:28:56.666Z,64.14
2023-03-17T06:31:41.935Z,63.86
2023-03-17T06:34:27.303Z,62.96
2023-03-17T06:37:12.719Z,62.52
2023-03-17T06:39:58.023Z,63.42
2023-03-17T06:42:43.827Z,63.05
2023-03-17T06:45:29.702Z,62.34
2023-03-17T06:48:15.443Z,61.93
2023-03-17T06:51:00.913Z,60.70
2023-03-17T06:53:46.150Z,60.50
2023-03-17T06:56:31.360Z,59.99
2023-03-17T06:59:17.057Z,58.44
2023-03-17T07:02:02.707Z,58.64
2023-03-17T07:04:48.171Z,58.35
2023-03-17T07:07:33.899Z,59.30
2023-03-17T07:10:19.367Z,57.36
2023-03-17T07:13:04.734Z,57.14
2023-03-17T07:15:50.828Z,55.60
2023-03-17T07:18:36.005Z,56.34
2023-03-17T07:21:21.662Z,55.68
2023-03-17T07:24:06.838Z,55.35
2023-03-17T07:26:52.133Z,57.13
2023-03-17T07:29:37.457Z,56.20
2023-03-17T07:32:22.907Z,55.49
2023-03-17T07:35:08.280Z,55.13
2023-03-17T07:37:53.415Z,55.18
2023-03-17T07:40:38.908Z,53.19
2023-03-17T07:43:24.072Z,53.90
2023-03-17T07:46:09.640Z,54.58
2023-03-17T07:48:55.486Z,55.30
2023-03-17T07:51:41.059Z,55.59
2023-03-17T07:54:28.471Z,55.58
2023-03-17T07:57:13.977Z,54.95
2023-03-17T07:59:59.142Z,53.69
2023-03-17T08:02:44.393Z,53.81
2023-03-17T08:05:29.800Z,53.22
2023-03-17T08:08:15.001Z,51.29
2023-03-17T08:11:04.957Z,50.15
2023-03-17T08:13:50.452Z,48.92
2023-03-17T08:16:35.915Z,48.86
2023-03-17T08:19:21.835Z,48.23
2023-03-17T08:22:07.441Z,46.34
2023-03-17T08:24:52.560Z,46.47
2023-03-17T08:27:37.685Z,45.66
2023-03-17T08:30:23.259Z,46.36
2023-03-17T08:33:09.259Z,46.08
2023-03-17T08:35:54.424Z,44.45
2023-03-17T08:38:41.356Z,44.85
2023-03-17T08:41:27.845Z,45.28
2023-03-17T08:44:13.581Z,45.32
2023-03-17T08:46:59.118Z,45.13
2023-03-17T08:49:44.224Z,43.08
2023-03-17T08:52:29.859Z,45.03
2023-03-17T08:55:15.879Z,42.29
2023-03-17T08:58:01.093Z,42.23
2023-03-17T09:00:46.815Z,45.23
2023-03-17T09:03:33.806Z,40.46
2023-03-17T09:06:19.510Z,41.26
2023-03-17T09:09:05.016Z,43.69
2023-03-17T09:11:50.413Z,41.76
2023-03-17T09:14:43.521Z,41.06
2023-03-17T09:17:29.265Z,46.21
2023-03-17T09:20:14.742Z,46.64
2023-03-17T09:23:00.156Z,44.75
2023-03-17T09:25:45.733Z,45.82
2023-03-17T09:28:31.128Z,46.67
2023-03-17T09:31:16.614Z,45.71
2023-03-17T09:34:02.663Z,43.70
2023-03-17T09:36:48.722Z,41.43
2023-03-17T09:39:34.004Z,42.89
2023-03-17T09:42:26.588Z,43.53
2023-03-17T09:45:24.534Z,42.95
2023-03-17T09:48:40.620Z,42.49
2023-03-17T09:51:26.276Z,39.27
2023-03-17T09:54:16.215Z,39.24
2023-03-17T09:57:16.533Z,40.88
2023-03-17T10:00:13.044Z,39.64
2023-03-17T10:02:59.001Z,38.62
2023-03-17T10:05:44.828Z,38.87
2023-03-17T10:08:33.239Z,36.63
2023-03-17T10:11:24.375Z,37.36
2023-03-17T10:14:27.607Z,37.85
2023-03-17T10:17:13.378Z,37.10
2023-03-17T10:20:05.392Z,35.37
2023-03-17T10:22:59.216Z,37.97
2023-03-17T10:25:44.874Z,37.57
2023-03-17T10:28:32.814Z,36.89
2023-03-17T10:31:26.648Z,37.84
2023-03-17T10:34:14.834Z,36.04
2023-03-17T10:37:07.378Z,36.22
2023-03-17T10:39:56.630Z,36.06
2023-03-17T10:42:51.937Z,37.30
2023-03-17T10:45:42.231Z,36.77
2023-03-17T10:48:36.963Z,41.24
2023-03-17T10:51:34.441Z,41.69
2023-03-17T10:54:22.638Z,42.18
2023-03-17T10:57:08.350Z,43.67
2023-03-17T10:59:59.522Z,42.94
2023-03-17T11:02:49.251Z,42.06
2023-03-17T11:05:34.628Z,41.88
2023-03-17T11:08:20.129Z,40.96
2023-03-17T11:11:21.338Z,42.68
2023-03-17T11:14:11.447Z,43.22
2023-03-17T11:17:13.615Z,45.92
2023-03-17T11:20:05.148Z,40.64
2023-03-17T11:23:23.890Z,40.40
2023-03-17T11:26:24.661Z,40.44
2023-03-17T11:29:37.679Z,41.83
2023-03-17T11:32:41.418Z,38.50
2023-03-17T11:35:32.769Z,42.54
2023-03-17T11:38:24.398Z,41.76
2023-03-17T11:41:31.425Z,41.94
2023-03-17T11:44:38.716Z,39.54
2023-03-17T11:47:45.163Z,41.73
2023-03-17T11:51:05.812Z,43.74
2023-03-17T11:53:59.850Z,43.33
2023-03-17T11:57:00.935Z,40.35
2023-03-17T11:59:52.281Z,42.40
2023-03-17T12:02:49.382Z,40.25
2023-03-17T12:05:35.475Z,40.64
2023-03-17T12:08:38.686Z,41.61
2023-03-17T12:11:28.980Z,39.47
2023-03-17T12:14:36.386Z,35.74
2023-03-17T12:17:34.392Z,36.98
2023-03-17T12:20:55.145Z,39.21
2023-03-17T12:23:52.333Z,35.21
2023-03-17T12:27:07.307Z,35.07
2023-03-17T12:30:00.446Z,35.15
2023-03-17T12:33:30.941Z,36.35
2023-03-17T12:36:17.937Z,33.58
2023-03-17T12:39:13.742Z,34.29
2023-03-17T12:42:10.856Z,35.61
2023-03-17T12:45:23.390Z,35.38
2023-03-17T12:48:23.796Z,35.40
2023-03-17T12:51:46.736Z,35.44
2023-03-17T12:54:37.473Z,36.54
2023-03-17T12:57:30.030Z,35.72
2023-03-17T13:00:23.230Z,36.73
2023-03-17T13:03:14.254Z,35.52
2023-03-17T13:06:06.200Z,35.04
2023-03-17T13:08:53.104Z,34.58
2023-03-17T13:11:38.422Z,34.01
2023-03-17T13:14:42.731Z,36.42
2023-03-17T13:17:28.081Z,38.02
2023-03-17T13:20:17.434Z,34.54
2023-03-17T13:23:16.145Z,35.92
2023-03-17T13:26:01.647Z,35.37
2023-03-17T13:28:51.227Z,34.42
2023-03-17T13:31:37.341Z,35.64
2023-03-17T13:34:22.487Z,34.65
2023-03-17T13:37:29.287Z,36.10
2023-03-17T13:40:22.911Z,35.04
2023-03-17T13:43:17.504Z,34.94
2023-03-17T13:46:25.878Z,35.64
2023-03-17T13:49:20.286Z,35.75
2023-03-17T13:52:15.399Z,35.36
2023-03-17T13:55:18.648Z,36.79
2023-03-17T13:58:08.214Z,36.85
2023-03-17T14:01:00.552Z,35.44
2023-03-17T14:03:50.852Z,36.91
2023-03-17T14:06:38.183Z,35.94
2023-03-17T14:09:43.522Z,36.36
2023-03-17T14:12:46.714Z,35.77
2023-03-17T14:15:45.278Z,35.08
2023-03-17T14:18:33.709Z,35.02
2023-03-17T14:21:24.954Z,35.08
2023-03-17T14:24:29.920Z,37.52
2023-03-17T14:27:14.933Z,35.93
2023-03-17T14:30:06.753Z,37.64
2023-03-17T14:33:20.897Z,38.02
2023-03-17T14:36:09.214Z,36.91
2023-03-17T14:38:56.749Z,38.28
2023-03-17T14:41:42.197Z,35.54
2023-03-17T14:44:28.019Z,40.23
2023-03-17T14:47:39.712Z,36.77
2023-03-17T14:50:29.562Z,35.07
2023-03-17T14:53:15.082Z,36.23
2023-03-17T14:56:00.730Z,36.68
2023-03-17T14:58:49.892Z,36.13
2023-03-17T15:01:44.361Z,38.06
2023-03-17T15:04:35.353Z,38.80
2023-03-17T15:07:39.276Z,37.78
2023-03-17T15:10:27.482Z,37.62
2023-03-17T15:13:13.600Z,36.98
2023-03-17T15:15:59.190Z,37.72
2023-03-17T15:18:45.059Z,36.80
2023-03-17T15:21:43.500Z,37.67
2023-03-17T15:24:40.045Z,37.17
2023-03-17T15:27:25.810Z,37.27
2023-03-17T15:30:12.290Z,36.71
2023-03-17T15:33:01.209Z,38.05
2023-03-17T15:35:46.313Z,37.96
2023-03-17T15:38:32.173Z,39.40
2023-03-17T15:41:17.702Z,40.72
2023-03-17T15:44:04.199Z,43.12
2023-03-17T15:46:50.380Z,44.79
2023-03-17T15:49:35.694Z,43.81
2023-03-17T15:52:23.860Z,44.24
2023-03-17T15:55:16.964Z,42.69
2023-03-17T15:58:02.330Z,41.03
2023-03-17T16:00:51.419Z,43.09
2023-03-17T16:03:36.714Z,44.07
2023-03-17T16:06:24.572Z,40.71
2023-03-17T16:09:15.771Z,41.08
2023-03-17T16:12:00.899Z,40.04
2023-03-17T16:14:45.945Z,42.03
2023-03-17T16:17:33.062Z,40.88
2023-03-17T16:20:23.236Z,39.04
2023-03-17T16:23:11.595Z,40.84
2023-03-17T16:26:04.620Z,43.68
2023-03-17T16:28:57.651Z,43.90
2023-03-17T16:31:46.129Z,39.67
2023-03-17T16:34:31.259Z,41.72
2023-03-17T16:37:16.785Z,43.26
2023-03-17T16:40:02.010Z,41.70
2023-03-17T16:42:48.347Z,44.64
2023-03-17T16:45:34.825Z,47.02
2023-03-17T16:48:20.443Z,46.44
2023-03-17T16:51:07.396Z,44.61
2023-03-17T16:53:52.776Z,43.39
2023-03-17T16:56:40.555Z,42.12
2023-03-17T16:59:26.386Z,42.57
2023-03-17T17:02:15.975Z,43.28
2023-03-17T17:05:01.167Z,45.44
2023-03-17T17:07:47.990Z,43.71
2023-03-17T17:10:34.547Z,43.09
2023-03-17T17:13:19.742Z,42.00
2023-03-17T17:16:05.538Z,41.98
2023-03-17T17:18:51.120Z,42.47
2023-03-17T17:21:36.267Z,43.27
2023-03-17T17:24:21.690Z,44.92
2023-03-17T17:27:06.962Z,45.49
2023-03-17T17:29:52.321Z,46.14
2023-03-17T17:32:37.709Z,46.42
2023-03-17T17:35:24.000Z,46.05
2023-03-17T17:38:24.636Z,48.51
2023-03-17T17:41:12.152Z,48.75
2023-03-17T17:43:57.493Z,48.35
2023-03-17T17:46:42.673Z,47.78
2023-03-17T17:49:27.865Z,44.45
2023-03-17T17:52:13.162Z,44.69
2023-03-17T17:54:58.703Z,44.86
2023-03-17T17:57:44.275Z,45.63
2023-03-17T18:00:29.729Z,48.44
2023-03-17T18:03:15.249Z,48.38
2023-03-17T18:06:01.740Z,48.74
2023-03-17T18:08:49.110Z,48.48
2023-03-17T18:11:34.672Z,48.77
2023-03-17T18:14:20.610Z,48.10
2023-03-17T18:17:05.873Z,47.24
2023-03-17T18:19:52.435Z,48.30
2023-03-17T18:22:37.903Z,47.41
2023-03-17T18:25:23.735Z,48.37
2023-03-17T18:28:08.893Z,47.16
2023-03-17T18:30:54.802Z,47.64
2023-03-17T18:33:43.435Z,48.72
2023-03-17T18:36:29.754Z,51.23
2023-03-17T18:39:16.158Z,49.14
2023-03-17T18:42:01.748Z,47.93
2023-03-17T18:44:49.566Z,46.89
2023-03-17T18:47:34.666Z,46.68
2023-03-17T18:50:21.258Z,47.19
2023-03-17T18:53:06.855Z,49.14
2023-03-17T18:55:52.201Z,49.13
2023-03-17T18:58:37.244Z,47.61
2023-03-17T19:01:23.276Z,47.57
2023-03-17T19:04:08.887Z,47.86
2023-03-17T19:06:54.166Z,47.92
2023-03-17T19:09:39.726Z,48.24
2023-03-17T19:12:25.206Z,47.93
2023-03-17T19:15:11.385Z,47.63
2023-03-17T19:17:56.779Z,47.21
2023-03-17T19:20:42.529Z,46.99
2023-03-17T19:23:28.647Z,46.53
2023-03-17T19:26:14.340Z,46.51
2023-03-17T19:28:59.782Z,46.44
2023-03-17T19:31:48.431Z,49.10
2023-03-17T19:34:38.388Z,50.02
2023-03-17T19:37:24.139Z,50.20
2023-03-17T19:40:10.699Z,49.76
2023-03-17T19:42:56.585Z,50.31
2023-03-17T19:45:41.887Z,49.67
2023-03-17T19:48:27.302Z,51.36
2023-03-17T19:51:12.929Z,51.68
2023-03-17T19:53:58.137Z,51.88
2023-03-17T19:56:44.436Z,51.16
2023-03-17T19:59:32.090Z,51.39
2023-03-17T20:02:19.540Z,51.76
2023-03-17T20:05:05.812Z,52.02
2023-03-17T20:07:50.879Z,52.49
2023-03-17T20:10:36.228Z,53.11
2023-03-17T20:13:22.189Z,54.80
2023-03-17T20:16:08.494Z,54.75
2023-03-17T20:18:54.056Z,54.98
2023-03-17T20:21:39.258Z,55.46
2023-03-17T20:24:24.898Z,55.06
2023-03-17T20:27:10.708Z,55.04
2023-03-17T20:29:56.266Z,54.37
2023-03-17T20:32:41.644Z,55.67
2023-03-17T20:35:26.746Z,56.12
2023-03-17T20:38:12.199Z,56.08
2023-03-17T20:41:07.758Z,56.51
2023-03-17T20:43:53.143Z,55.52
2023-03-17T20:46:38.260Z,56.00
2023-03-17T20:49:23.730Z,56.30
2023-03-17T20:52:11.688Z,56.82
2023-03-17T20:54:57.694Z,56.80
2023-03-17T20:57:45.732Z,56.32
2023-03-17T21:00:32.006Z,56.27
2023-03-17T21:03:17.353Z,56.37
2023-03-17T21:06:02.968Z,57.27
2023-03-17T21:08:49.812Z,57.18
2023-03-17T21:11:36.707Z,56.71
2023-03-17T21:14:22.208Z,56.59
2023-03-17T21:17:09.869Z,56.59
2023-03-17T21:19:55.345Z,57.45
2023-03-17T21:22:40.927Z,58.25
2023-03-17T21:25:26.283Z,57.99
2023-03-17T21:28:11.588Z,58.01
2023-03-17T21:30:57.700Z,58.06
2023-03-17T21:33:43.566Z,57.91
2023-03-17T21:36:28.832Z,57.37
2023-03-17T21:39:14.024Z,57.18
2023-03-17T21:41:59.902Z,57.16
2023-03-17T21:44:45.519Z,57.05
2023-03-17T21:47:31.453Z,56.24
2023-03-17T21:50:18.801Z,56.56
2023-03-17T21:53:05.667Z,56.67
2023-03-17T21:55:52.134Z,56.49
2023-03-17T21:58:37.679Z,54.70
2023-03-17T22:01:23.800Z,53.56
2023-03-17T22:04:10.279Z,53.31
2023-03-17T22:06:55.538Z,52.44
2023-03-17T22:09:42.017Z,52.24
2023-03-17T22:12:28.219Z,52.08
2023-03-17T22:15:13.581Z,51.65
2023-03-17T22:17:58.780Z,51.95
2023-03-17T22:20:44.381Z,51.99
2023-03-17T22:23:30.459Z,52.03
2023-03-17T22:26:19.128Z,51.94
2023-03-17T22:29:04.465Z,51.94
2023-03-17T22:31:50.136Z,52.78
2023-03-17T22:34:35.847Z,52.03
2023-03-17T22:37:21.301Z,52.60
2023-03-17T22:40:07.585Z,52.07
2023-03-17T22:42:55.641Z,51.97
2023-03-17T22:45:41.203Z,51.39
2023-03-17T22:48:26.415Z,51.55
2023-03-17T22:51:15.065Z,51.79
2023-03-17T22:54:00.546Z,51.77
2023-03-17T22:56:45.986Z,51.95
2023-03-17T22:59:31.450Z,52.01
2023-03-17T23:02:18.555Z,51.57
2023-03-17T23:05:04.574Z,50.80
2023-03-17T23:07:51.402Z,50.53
2023-03-17T23:10:38.832Z,50.07
2023-03-17T23:13:24.285Z,50.64
2023-03-17T23:16:09.841Z,51.71
2023-03-17T23:18:55.518Z,53.08
2023-03-17T23:21:40.935Z,53.91
2023-03-17T23:24:26.143Z,52.85
2023-03-17T23:27:11.802Z,52.64
2023-03-17T23:29:57.274Z,52.46
2023-03-17T23:32:42.520Z,53.73
2023-03-17T23:35:28.069Z,54.98
2023-03-17T23:38:13.457Z,55.11
2023-03-17T23:40:59.268Z,55.83
2023-03-17T23:43:45.101Z,56.30
2023-03-17T23:46:31.378Z,56.63
2023-03-17T23:49:17.173Z,56.24
2023-03-17T23:52:02.443Z,56.59
2023-03-17T23:54:48.496Z,56.88
2023-03-17T23:57:34.516Z,57.00
